Time;durP1;ratioP1;P1;durP2;ratioP2;P2;SDS_P1;SDS_P2;PMS_P1;PMS_P2;Temp;Humidity;BMP_temperature;BMP_pressure;BME280_temperature;BME280_humidity;BME280_pressure;Samples;Min_cycle;Max_cycle;Signal;HPM_P1;HPM_P2
2021/06/12 00:01:40;;;;;;;9.27;6.00;;;;;;;12.96;76.36;96121.97;5080953;28;20029;-79
2021/06/12 00:04:07;;;;;;;9.27;5.65;;;;;;;13.23;76.18;96161.69;5071851;28;20020;-79
2021/06/12 00:06:33;;;;;;;7.03;5.70;;;;;;;12.87;75.47;96111.19;5091535;28;20033;-80
2021/06/12 00:08:59;;;;;;;8.07;6.40;;;;;;;13.49;75.87;96214.31;5084544;28;20020;-79
2021/06/12 00:11:24;;;;;;;10.32;5.93;;;;;;;12.94;76.46;96133.34;5095385;28;20058;-83
2021/06/12 00:13:50;;;;;;;6.40;5.80;;;;;;;12.91;75.61;96128.84;5097038;28;20060;-79
2021/06/12 00:16:17;;;;;;;6.97;5.50;;;;;;;13.27;76.12;96179.34;5096074;28;20027;-79
2021/06/12 00:18:43;;;;;;;10.57;6.30;;;;;;;13.21;75.46;96180.47;5095432;28;20467;-79
2021/06/12 00:21:08;;;;;;;13.45;6.30;;;;;;;12.96;77.09;96130.88;5096966;28;20145;-78
2021/06/12 00:23:34;;;;;;;42.17;8.65;;;;;;;12.80;76.85;96106.91;5096071;28;20024;-78
2021/06/12 00:26:00;;;;;;;41.83;22.98;;;;;;;12.59;76.08;96096.03;5097060;28;20073;-78
2021/06/12 00:28:26;;;;;;;31.30;18.60;;;;;;;12.76;76.76;96118.03;5095310;28;20062;-79
2021/06/12 00:30:51;;;;;;;20.13;13.70;;;;;;;13.05;77.42;96160.00;5096958;28;20051;-79
2021/06/12 00:33:17;;;;;;;17.05;11.73;;;;;;;12.42;77.09;96091.59;5096864;28;20427;-79
2021/06/12 00:35:43;;;;;;;17.23;11.80;;;;;;;12.82;77.74;96158.97;5096021;28;20028;-79
2021/06/12 00:38:09;;;;;;;14.60;9.98;;;;;;;12.93;77.85;96169.25;5095031;28;20031;-79
2021/06/12 00:40:35;;;;;;;12.07;8.82;;;;;;;12.80;77.67;96170.34;5096980;28;20028;-79
2021/06/12 00:43:02;;;;;;;12.13;8.50;;;;;;;13.18;77.75;96205.97;5095771;28;20480;-79
2021/06/12 00:45:30;;;;;;;11.80;7.95;;;;;;;12.90;77.63;96165.50;5095056;28;20024;-79
2021/06/12 00:47:57;;;;;;;9.98;7.70;;;;;;;12.55;78.07;96116.53;5095901;28;20367;-79
2021/06/12 00:50:25;;;;;;;11.30;8.75;;;;;;;12.72;78.33;96163.03;5095559;28;20020;-79
2021/06/12 00:52:51;;;;;;;23.10;9.70;;;;;;;12.66;79.02;96151.31;5095011;28;20315;-79
2021/06/12 00:55:17;;;;;;;9.63;8.23;;;;;;;12.61;78.39;96139.13;5094815;28;20016;-78
2021/06/12 00:57:43;;;;;;;12.68;9.40;;;;;;;12.24;79.16;96089.88;5095566;28;20031;-79
2021/06/12 01:00:12;;;;;;;8.45;7.47;;;;;;;12.18;78.86;96091.78;5095445;28;20198;-79
2021/06/12 01:02:38;;;;;;;9.57;8.50;;;;;;;12.70;78.93;96165.50;5073405;28;20025;-78
2021/06/12 01:05:07;;;;;;;11.30;7.60;;;;;;;12.20;78.78;96086.63;5076483;28;20125;-79
2021/06/12 01:07:33;;;;;;;8.80;6.97;;;;;;;12.40;78.99;96124.00;5076208;28;20103;-78
2021/06/12 01:09:59;;;;;;;10.20;7.07;;;;;;;12.45;79.67;96147.81;5075160;28;20153;-78
2021/06/12 01:12:31;;;;;;;8.25;6.90;;;;;;;12.33;79.37;96130.59;5075994;28;20032;-79
2021/06/12 01:15:04;;;;;;;7.78;6.88;;;;;;;12.83;79.11;96209.50;5076006;28;20024;-79
2021/06/12 01:17:45;;;;;;;7.50;6.70;;;;;;;12.39;79.48;96149.72;5072948;28;20032;-79
2021/06/12 01:20:36;;;;;;;8.45;6.55;;;;;;;11.91;78.74;96095.59;5074765;28;20020;-79
2021/06/12 01:23:30;;;;;;;9.57;6.93;;;;;;;12.65;79.44;96212.50;5072990;28;20491;-78
2021/06/12 01:26:24;;;;;;;15.77;7.40;;;;;;;12.39;80.14;96171.53;5093481;28;20031;-78
2021/06/12 01:29:20;;;;;;;8.68;6.78;;;;;;;12.64;80.37;96197.38;5094874;28;20034;-79
2021/06/12 01:31:48;;;;;;;18.65;15.25;;;;;;;12.52;79.88;96186.34;5095910;28;20096;-78
2021/06/12 01:34:14;;;;;;;19.60;14.85;;;;;;;11.87;79.40;96114.06;5094853;28;20028;-78
2021/06/12 01:36:41;;;;;;;10.80;9.32;;;;;;;11.90;80.69;96122.06;5094876;28;20398;-79
2021/06/12 01:39:07;;;;;;;8.45;6.80;;;;;;;11.76;79.95;96106.47;5094881;28;20024;-78
2021/06/12 01:41:34;;;;;;;10.40;7.30;;;;;;;12.47;80.77;96202.59;5094877;28;20034;-78
2021/06/12 01:44:01;;;;;;;15.98;11.18;;;;;;;12.06;80.20;96146.06;5094740;28;20111;-78
2021/06/12 01:46:28;;;;;;;8.45;7.57;;;;;;;11.88;79.37;96126.44;5093560;28;20023;-78
2021/06/12 01:48:58;;;;;;;8.85;8.02;;;;;;;12.05;80.21;96160.13;5095847;28;20365;-78
2021/06/12 01:51:24;;;;;;;8.48;7.57;;;;;;;11.54;80.31;96094.00;5095790;28;20020;-78
2021/06/12 01:53:54;;;;;;;8.90;7.20;;;;;;;12.15;79.61;96168.94;5093433;28;20040;-78
2021/06/12 01:56:22;;;;;;;8.35;6.47;;;;;;;12.43;80.37;96207.47;5095729;28;20218;-79
2021/06/12 01:58:49;;;;;;;8.50;7.13;;;;;;;11.65;80.17;96109.75;5095648;28;20016;-79
2021/06/12 02:01:16;;;;;;;9.20;7.15;;;;;;;11.67;79.66;96120.94;5094665;28;20038;-79
2021/06/12 02:03:45;;;;;;;8.68;6.82;;;;;;;11.56;80.46;96109.88;5093266;28;20334;-78
2021/06/12 02:06:15;;;;;;;9.55;6.90;;;;;;;11.64;80.22;96115.66;5094468;28;20065;-78
2021/06/12 02:08:41;;;;;;;12.65;6.88;;;;;;;11.74;81.00;96133.41;5094422;28;20435;-79
2021/06/12 02:11:08;;;;;;;10.13;6.85;;;;;;;12.11;79.43;96188.19;5093568;28;20032;-79
2021/06/12 02:13:36;;;;;;;10.73;7.05;;;;;;;12.18;80.21;96195.22;5094791;28;20023;-79
2021/06/12 02:16:03;;;;;;;9.68;6.97;;;;;;;11.54;79.94;96102.16;5095055;28;20020;-78
2021/06/12 02:18:29;;;;;;;9.25;7.47;;;;;;;11.57;78.94;96089.59;5092914;28;20047;-78
2021/06/12 02:20:57;;;;;;;8.20;6.57;;;;;;;11.95;79.29;96173.09;5094051;28;20047;-78
2021/06/12 02:23:25;;;;;;;7.82;7.03;;;;;;;11.70;79.85;96144.47;5094169;28;20366;-78
2021/06/12 02:25:52;;;;;;;11.27;7.53;;;;;;;11.45;80.01;96115.09;5095162;28;20019;-78
2021/06/12 02:28:19;;;;;;;9.73;7.03;;;;;;;11.28;79.92;96093.81;5093032;28;20103;-78
2021/06/12 02:30:51;;;;;;;9.50;7.43;;;;;;;11.55;80.44;96136.28;5095146;28;20036;-79
2021/06/12 02:33:19;;;;;;;8.05;6.88;;;;;;;11.36;80.17;96121.41;5095134;28;20028;-78
2021/06/12 02:35:45;;;;;;;9.48;7.68;;;;;;;11.92;80.88;96203.97;5092228;28;20025;-79
2021/06/12 02:38:11;;;;;;;9.93;7.70;;;;;;;11.20;81.27;96098.13;5094935;28;20020;-79
2021/06/12 02:40:38;;;;;;;8.45;7.40;;;;;;;10.92;80.80;96056.09;5093846;28;20085;-79
2021/06/12 02:43:04;;;;;;;10.30;7.45;;;;;;;11.29;80.92;96119.03;5092785;28;20327;-79
2021/06/12 02:45:30;;;;;;;9.07;7.35;;;;;;;11.21;80.97;96110.50;5092711;28;20028;-80
2021/06/12 02:48:11;;;;;;;11.45;7.30;;;;;;;11.18;81.14;96116.84;5090358;28;20449;-79
2021/06/12 02:50:38;;;;;;;11.88;7.28;;;;;;;11.02;81.07;96082.75;5091568;28;20054;-78
2021/06/12 02:53:06;;;;;;;10.57;7.40;;;;;;;11.12;80.91;96088.84;5094632;28;20020;-78
2021/06/12 02:55:35;;;;;;;11.10;8.15;;;;;;;10.79;81.72;96059.09;5094261;28;20035;-79
2021/06/12 02:58:02;;;;;;;14.57;12.07;;;;;;;11.53;81.80;96182.25;5092099;28;20394;-79
2021/06/12 03:00:30;;;;;;;10.07;8.60;;;;;;;11.33;81.70;96148.75;5092834;28;20020;-79
2021/06/12 03:02:56;;;;;;;11.85;8.27;;;;;;;11.03;81.58;96105.25;5094474;28;20036;-79
2021/06/12 03:05:26;;;;;;;11.00;7.32;;;;;;;11.72;81.57;96198.41;5093380;28;20320;-79
2021/06/12 03:08:01;;;;;;;11.98;8.07;;;;;;;11.22;82.01;96122.88;5092802;28;20028;-79
2021/06/12 03:10:30;;;;;;;8.50;7.63;;;;;;;11.33;81.75;96144.06;5093308;28;20028;-79
2021/06/12 03:12:58;;;;;;;12.13;7.45;;;;;;;11.28;81.94;96136.56;5093275;28;20070;-79
2021/06/12 03:15:25;;;;;;;8.77;7.85;;;;;;;11.53;82.56;96176.81;5092129;28;20055;-79
2021/06/12 03:17:51;;;;;;;12.80;7.57;;;;;;;11.34;82.25;96139.38;5094167;28;20028;-79
2021/06/12 03:20:19;;;;;;;9.98;7.90;;;;;;;11.70;82.56;96204.31;5094017;28;20031;-79
2021/06/12 03:22:48;;;;;;;9.10;7.50;;;;;;;11.80;82.28;96207.69;5091404;28;20028;-79
2021/06/12 03:25:18;;;;;;;9.88;7.65;;;;;;;11.27;82.69;96132.34;5094121;28;20366;-79
2021/06/12 03:27:45;;;;;;;11.38;7.70;;;;;;;11.30;82.15;96138.84;5093223;28;20101;-79
2021/06/12 03:30:12;;;;;;;9.38;7.90;;;;;;;11.53;82.31;96159.75;5091265;28;20069;-79
2021/06/12 03:32:38;;;;;;;12.65;7.68;;;;;;;11.95;82.75;96218.63;5093754;28;20032;-79
2021/06/12 03:35:04;;;;;;;12.57;7.63;;;;;;;11.66;82.07;96165.66;5092671;28;20020;-79
2021/06/12 03:37:31;;;;;;;10.60;7.38;;;;;;;11.59;81.04;96147.00;5093851;28;20051;-79
2021/06/12 03:39:57;;;;;;;10.80;8.23;;;;;;;11.51;80.83;96124.13;5091094;28;20016;-79
2021/06/12 03:42:23;;;;;;;11.25;7.40;;;;;;;12.02;82.08;96188.28;5093847;28;20039;-79
2021/06/12 03:44:50;;;;;;;11.20;7.85;;;;;;;11.96;81.71;96179.28;5093841;28;20020;-79
2021/06/12 03:47:16;;;;;;;9.90;7.85;;;;;;;11.89;82.35;96166.06;5091561;28;20404;-80
2021/06/12 03:49:42;;;;;;;12.88;7.82;;;;;;;11.75;81.56;96124.75;5092330;28;20032;-80
2021/06/12 03:52:08;;;;;;;8.43;7.47;;;;;;;11.89;81.72;96147.03;5093651;28;20035;-79
2021/06/12 03:54:36;;;;;;;9.18;6.70;;;;;;;12.07;81.24;96147.53;5093422;28;20054;-79
2021/06/12 03:57:03;;;;;;;8.98;7.03;;;;;;;12.53;80.37;96209.63;5092055;28;20035;-79
2021/06/12 03:59:28;;;;;;;9.70;7.70;;;;;;;12.12;81.20;96146.13;5092424;28;20020;-79
2021/06/12 04:02:01;;;;;;;9.25;7.53;;;;;;;12.02;80.07;96121.00;5092158;28;20030;-79
2021/06/12 04:04:27;;;;;;;8.40;7.55;;;;;;;12.31;80.44;96160.28;5106006;28;20103;-79
2021/06/12 04:06:53;;;;;;;9.35;7.63;;;;;;;12.22;80.24;96149.50;5105190;28;20089;-79
2021/06/12 04:09:19;;;;;;;9.05;8.25;;;;;;;12.41;79.48;96169.06;5113750;28;20024;-79
2021/06/12 04:11:45;;;;;;;8.65;7.75;;;;;;;12.41;79.48;96169.06;5113944;28;20077;-80
2021/06/12 04:14:11;;;;;;;14.73;8.70;;;;;;;12.41;79.48;96169.06;5112143;28;20024;-80
2021/06/12 04:16:38;;;;;;;14.43;8.00;;;;;;;12.41;79.48;96169.06;5112714;28;20430;-80
2021/06/12 04:19:04;;;;;;;18.48;8.27;;;;;;;12.41;79.48;96169.06;5112799;28;20100;-79
2021/06/12 04:21:29;;;;;;;10.13;7.57;;;;;;;12.41;79.48;96169.06;5112643;28;20430;-79
2021/06/12 04:23:55;;;;;;;11.30;7.75;;;;;;;12.41;79.48;96169.06;5112334;28;20076;-79
2021/06/12 04:26:21;;;;;;;9.35;7.70;;;;;;;12.41;79.48;96169.06;5112737;28;20081;-79
2021/06/12 04:28:46;;;;;;;8.57;7.30;;;;;;;12.41;79.48;96169.06;5112629;28;20031;-79
2021/06/12 04:31:12;;;;;;;13.23;8.23;;;;;;;12.41;79.48;96169.06;5111041;28;20118;-79
2021/06/12 04:33:38;;;;;;;13.05;7.63;;;;;;;12.41;79.48;96169.06;5112605;28;20023;-79
2021/06/12 04:36:04;;;;;;;9.80;7.78;;;;;;;-145.61;100.00;68426.72;5113693;28;20028;-80
2021/06/12 04:38:30;;;;;;;10.68;8.02;;;;;;;12.41;79.48;96169.06;5113656;28;20322;-79
2021/06/12 04:40:56;;;;;;;9.38;7.97;;;;;;;-145.61;100.00;68426.72;5110940;28;20023;-79
2021/06/12 04:43:22;;;;;;;10.73;8.82;;;;;;;-145.61;100.00;68426.72;5112490;28;20034;-79
2021/06/12 04:45:47;;;;;;;8.95;7.70;;;;;;;-145.61;100.00;68426.72;5112555;28;20016;-79
2021/06/12 04:48:13;;;;;;;11.20;7.63;;;;;;;-145.61;100.00;68426.72;5111392;28;20024;-79
2021/06/12 04:50:39;;;;;;;9.48;8.55;;;;;;;-145.61;100.00;68426.72;5111825;28;20027;-79
2021/06/12 04:53:11;;;;;;;9.40;8.32;;;;;;;-145.61;100.00;68426.72;5116166;28;20027;-79
2021/06/12 04:55:37;;;;;;;9.60;8.05;;;;;;;-145.61;100.00;68426.72;5116529;28;20415;-80
2021/06/12 04:58:03;;;;;;;8.95;7.05;;;;;;;-145.61;100.00;68426.72;5112615;28;20030;-80
2021/06/12 05:00:30;;;;;;;8.60;7.70;;;;;;;-145.61;100.00;68426.72;5096710;28;20444;-80
2021/06/12 05:02:55;;;;;;;19.25;16.35;;;;;;;-145.61;100.00;68426.72;5096721;28;20027;-81
2021/06/12 05:05:21;;;;;;;13.15;9.90;;;;;;;-145.61;100.00;68426.72;5094629;28;20049;-80
2021/06/12 05:07:46;;;;;;;7.80;6.78;;;;;;;-145.61;100.00;68426.72;5092590;28;20027;-80
2021/06/12 05:10:13;;;;;;;10.50;7.35;;;;;;;-145.61;100.00;68426.72;5096574;28;20059;-79
2021/06/12 05:12:39;;;;;;;7.55;6.68;;;;;;;-145.61;100.00;68426.72;5095590;28;20028;-81
2021/06/12 05:15:07;;;;;;;7.78;6.47;;;;;;;-145.61;100.00;68426.72;5093768;28;20030;-81
2021/06/12 05:17:33;;;;;;;10.25;6.97;;;;;;;-145.61;100.00;68426.72;5095513;28;20031;-80
2021/06/12 05:19:59;;;;;;;7.63;6.45;;;;;;;-145.61;100.00;68426.72;5095211;28;20055;-80
2021/06/12 05:22:27;;;;;;;9.18;7.57;;;;;;;-145.61;100.00;68426.72;5094768;28;20090;-80
2021/06/12 05:24:54;;;;;;;8.48;6.82;;;;;;;-145.61;100.00;68426.72;5094563;28;20043;-80
2021/06/12 05:27:20;;;;;;;11.65;7.10;;;;;;;-145.61;100.00;68426.72;5095212;28;20039;-80
2021/06/12 05:29:46;;;;;;;7.57;6.78;;;;;;;-145.61;100.00;68426.72;5096322;28;20020;-80
2021/06/12 05:32:15;;;;;;;10.07;7.05;;;;;;;-145.61;100.00;68426.72;5093475;28;20063;-80
2021/06/12 05:34:41;;;;;;;12.00;7.63;;;;;;;-145.61;100.00;68426.72;5095936;28;20415;-81
2021/06/12 05:37:07;;;;;;;13.02;7.55;;;;;;;-145.61;100.00;68426.72;5096217;28;20428;-79
2021/06/12 05:39:33;;;;;;;8.35;6.90;;;;;;;-145.61;100.00;68426.72;5095345;28;20031;-80
2021/06/12 05:41:59;;;;;;;11.95;9.30;;;;;;;-145.61;100.00;68426.72;5094100;28;20848;-80
2021/06/12 05:44:25;;;;;;;28.83;10.23;;;;;;;-145.61;100.00;68426.72;5094987;28;20031;-80
2021/06/12 05:46:51;;;;;;;11.27;8.75;;;;;;;-145.61;100.00;68426.72;5098964;28;20027;-82
2021/06/12 05:49:20;;;;;;;11.30;7.57;;;;;;;-145.61;100.00;68426.72;5095549;28;20062;-80
2021/06/12 05:51:47;;;;;;;12.20;7.78;;;;;;;-145.61;100.00;68426.72;5094746;28;20041;-78
2021/06/12 05:54:13;;;;;;;10.75;7.97;;;;;;;12.41;79.48;96169.06;5094669;28;20024;-79
2021/06/12 05:56:39;;;;;;;10.55;7.50;;;;;;;12.41;79.48;96169.06;5095457;28;20114;-79
2021/06/12 05:59:05;;;;;;;11.45;7.45;;;;;;;12.41;79.48;96169.06;5094773;28;20055;-79
2021/06/12 06:01:31;;;;;;;9.50;7.35;;;;;;;12.41;79.48;96169.06;5094423;28;20024;-79
2021/06/12 06:03:56;;;;;;;11.60;7.35;;;;;;;12.41;79.48;96169.06;5094782;28;20024;-79
2021/06/12 06:06:22;;;;;;;9.43;7.15;;;;;;;12.41;79.48;96169.06;5092841;28;20024;-79
2021/06/12 06:08:48;;;;;;;8.15;7.35;;;;;;;12.41;79.48;96169.06;5094420;28;20024;-79
2021/06/12 06:11:13;;;;;;;7.40;6.70;;;;;;;15.43;69.74;96188.03;5095392;28;20069;-79
2021/06/12 06:13:43;;;;;;;8.65;7.20;;;;;;;15.12;69.48;96114.31;5111961;28;20039;-80
2021/06/12 06:16:09;;;;;;;8.50;6.60;;;;;;;15.80;69.70;96189.88;5085125;28;20027;-81
2021/06/12 06:18:37;;;;;;;7.97;6.40;;;;;;;15.85;71.02;96191.13;5114658;28;20042;-80
2021/06/12 06:21:03;;;;;;;7.35;6.65;;;;;;;15.33;69.26;96099.19;5105715;28;20074;-80
2021/06/12 06:23:29;;;;;;;7.60;6.78;;;;;;;15.57;69.68;96115.16;5091148;28;20028;-79
2021/06/12 06:25:55;;;;;;;9.57;7.68;;;;;;;15.70;69.67;96128.38;5093648;28;20161;-80
2021/06/12 06:28:20;;;;;;;7.50;6.80;;;;;;;16.13;67.79;96169.22;5094720;28;20056;-80
2021/06/12 06:30:46;;;;;;;10.43;7.07;;;;;;;15.70;68.33;96107.22;5094731;28;20023;-80
2021/06/12 06:33:12;;;;;;;7.90;6.75;;;;;;;15.84;67.95;96110.22;5079819;28;20104;-80
2021/06/12 06:35:37;;;;;;;7.30;6.40;;;;;;;16.14;68.58;96135.88;5075186;28;20078;-80
2021/06/12 06:38:03;;;;;;;7.30;6.57;;;;;;;16.47;67.70;96176.16;5094792;28;20408;-80
2021/06/12 06:40:29;;;;;;;7.70;6.78;;;;;;;16.38;67.45;96148.28;5094879;28;20028;-80
2021/06/12 06:42:55;;;;;;;8.23;7.38;;;;;;;16.43;66.81;96145.53;5092450;28;20023;-80
2021/06/12 06:45:21;;;;;;;7.47;6.80;;;;;;;16.37;66.25;96111.91;5093612;28;20020;-80
2021/06/12 06:47:47;;;;;;;8.90;7.38;;;;;;;16.62;66.38;96140.25;5094673;28;20024;-80
2021/06/12 06:50:15;;;;;;;6.97;6.13;;;;;;;16.53;66.55;96107.63;5091957;28;20028;-80
2021/06/12 06:52:41;;;;;;;6.63;6.03;;;;;;;16.56;65.15;96087.41;5093690;28;20036;-80
2021/06/12 06:55:07;;;;;;;7.57;6.72;;;;;;;16.83;65.86;96107.81;5094621;28;20032;-80
2021/06/12 06:57:32;;;;;;;7.90;7.10;;;;;;;16.75;65.31;96085.66;5094640;28;20049;-80
2021/06/12 06:59:58;;;;;;;6.50;5.80;;;;;;;17.03;66.57;96101.22;5093056;28;20350;-80
2021/06/12 07:02:25;;;;;;;9.30;8.40;;;;;;;17.00;65.54;96081.03;5094744;28;20028;-80
2021/06/12 07:04:50;;;;;;;8.05;7.35;;;;;;;17.17;65.33;96080.94;5094574;28;20028;-80
2021/06/12 07:07:16;;;;;;;6.43;5.43;;;;;;;17.30;64.08;96085.84;5093843;28;20026;-80
2021/06/12 07:09:41;;;;;;;7.45;5.95;;;;;;;17.60;64.33;96118.09;5092385;28;20039;-80
2021/06/12 07:12:08;;;;;;;8.65;6.38;;;;;;;17.72;62.47;96112.03;5093080;28;20031;-80
2021/06/12 07:14:35;;;;;;;7.25;5.05;;;;;;;17.90;61.34;96120.91;5093774;28;20373;-80
2021/06/12 07:17:01;;;;;;;5.85;5.05;;;;;;;18.23;60.97;96156.34;5091905;28;20020;-80
2021/06/12 07:19:26;;;;;;;8.55;5.72;;;;;;;17.77;60.17;96067.31;5094252;28;20370;-80
2021/06/12 07:21:52;;;;;;;7.78;5.03;;;;;;;18.22;59.46;96116.38;5092981;28;20043;-80
2021/06/12 07:24:18;;;;;;;5.90;5.00;;;;;;;18.16;59.11;96082.69;5093164;28;20016;-80
2021/06/12 07:26:43;;;;;;;5.65;4.53;;;;;;;18.23;58.14;96071.16;5092569;28;20024;-80
2021/06/12 07:29:12;;;;;;;4.53;3.90;;;;;;;18.39;59.42;96080.47;5094090;28;20047;-80
2021/06/12 07:31:40;;;;;;;6.13;4.13;;;;;;;18.93;57.45;96134.63;5093942;28;20035;-80
2021/06/12 07:34:07;;;;;;;4.60;4.20;;;;;;;19.17;55.33;96153.09;5091221;28;20024;-80
2021/06/12 07:36:33;;;;;;;5.22;4.00;;;;;;;19.20;53.93;96145.81;5094053;28;20073;-80
2021/06/12 07:38:59;;;;;;;4.13;3.75;;;;;;;19.28;54.71;96146.69;5094122;28;20073;-80
2021/06/12 07:41:26;;;;;;;5.32;3.90;;;;;;;18.53;53.17;96026.31;5092786;28;20028;-80
2021/06/12 07:43:51;;;;;;;4.72;3.60;;;;;;;19.01;53.41;96077.00;5092273;28;20020;-79
2021/06/12 07:46:17;;;;;;;5.35;3.75;;;;;;;19.45;53.94;96116.94;5092788;28;20028;-80
2021/06/12 07:48:42;;;;;;;4.88;3.60;;;;;;;19.54;54.08;96107.53;5093887;28;20047;-80
2021/06/12 07:51:08;;;;;;;6.93;4.22;;;;;;;19.23;51.42;96068.47;5092095;28;20028;-80
2021/06/12 07:53:34;;;;;;;4.57;3.55;;;;;;;19.20;51.28;96052.97;5091736;28;20097;-80
2021/06/12 07:56:00;;;;;;;5.80;3.70;;;;;;;19.89;52.04;96134.84;5092555;28;20042;-80
2021/06/12 07:58:26;;;;;;;3.83;3.53;;;;;;;19.81;49.77;96102.91;5092638;28;20103;-80
2021/06/12 08:00:52;;;;;;;3.90;3.47;;;;;;;19.46;51.69;96027.56;5092107;28;20103;-80
2021/06/12 08:03:17;;;;;;;3.60;3.30;;;;;;;19.90;51.61;96072.22;5093646;28;20311;-80
2021/06/12 08:05:43;;;;;;;5.32;3.50;;;;;;;19.78;50.44;96033.09;5093592;28;20039;-80
2021/06/12 08:08:09;;;;;;;3.95;3.55;;;;;;;19.63;49.71;96028.06;5093704;28;20035;-80
2021/06/12 08:10:34;;;;;;;4.22;3.33;;;;;;;19.91;49.15;96065.41;5092086;28;20031;-80
2021/06/12 08:13:01;;;;;;;5.45;3.72;;;;;;;19.81;48.94;96031.28;5093599;28;20028;-80
2021/06/12 08:15:27;;;;;;;4.35;2.92;;;;;;;20.43;52.29;96094.31;5093510;28;20319;-80
2021/06/12 08:17:52;;;;;;;4.22;3.45;;;;;;;20.53;49.52;96089.16;5091863;28;20020;-80
2021/06/12 08:20:18;;;;;;;4.68;3.22;;;;;;;20.44;48.64;96067.50;5092563;28;20028;-80
2021/06/12 08:22:43;;;;;;;4.00;3.30;;;;;;;20.58;48.71;96064.22;5092248;28;20072;-80
2021/06/12 08:25:09;;;;;;;3.80;3.38;;;;;;;20.83;49.40;96064.75;5093459;28;20012;-80
2021/06/12 08:27:36;;;;;;;4.57;3.08;;;;;;;20.73;47.86;96038.88;5094813;28;20061;-80
2021/06/12 08:30:03;;;;;;;3.95;3.28;;;;;;;20.95;47.13;96064.50;5097545;28;20379;-80
2021/06/12 08:32:30;;;;;;;3.90;3.13;;;;;;;21.47;47.93;96126.44;5097545;28;20407;-80
2021/06/12 08:34:55;;;;;;;5.07;3.20;;;;;;;21.05;45.21;96055.25;5097334;28;20035;-80
2021/06/12 08:37:21;;;;;;;5.93;3.35;;;;;;;21.48;45.31;96112.06;5095771;28;20023;-80
2021/06/12 08:39:46;;;;;;;3.95;2.85;;;;;;;21.49;47.92;96076.91;5097424;28;20038;-80
2021/06/12 08:42:12;;;;;;;3.80;2.85;;;;;;;21.71;46.88;96079.88;5096166;28;20035;-80
2021/06/12 08:44:40;;;;;;;5.00;3.15;;;;;;;21.85;46.41;96113.72;5096591;28;20020;-80
2021/06/12 08:47:06;;;;;;;3.63;2.90;;;;;;;21.65;46.17;96070.25;5096900;28;20077;-80
2021/06/12 08:49:32;;;;;;;4.18;3.13;;;;;;;21.63;44.87;96081.84;5096019;28;20055;-81
2021/06/12 08:51:58;;;;;;;3.35;2.65;;;;;;;21.62;46.93;96072.03;5096885;28;20027;-80
2021/06/12 08:54:26;;;;;;;4.07;3.38;;;;;;;21.21;46.24;96014.00;5095230;28;20362;-80
2021/06/12 08:56:52;;;;;;;3.90;3.22;;;;;;;21.09;47.64;96038.34;5096985;28;20024;-80
2021/06/12 08:59:17;;;;;;;3.13;2.60;;;;;;;21.14;45.60;96045.75;5096971;28;20023;-80
2021/06/12 09:01:44;;;;;;;3.00;2.70;;;;;;;21.27;45.84;96056.78;5096593;28;20026;-81
2021/06/12 09:04:10;;;;;;;5.00;2.50;;;;;;;21.28;46.32;96038.19;5094761;28;20024;-80
2021/06/12 09:06:36;;;;;;;2.90;2.70;;;;;;;21.45;46.36;96055.13;5097048;28;20109;-81
2021/06/12 09:09:03;;;;;;;2.50;2.30;;;;;;;21.40;44.39;96045.69;5096768;28;20362;-81
2021/06/12 09:11:33;;;;;;;3.78;2.83;;;;;;;21.36;47.46;96034.25;5095440;28;20324;-80
2021/06/12 09:14:04;;;;;;;2.75;2.53;;;;;;;21.32;43.50;96042.13;5096619;28;20024;-80
2021/06/12 09:16:38;;;;;;;2.83;2.50;;;;;;;21.70;43.76;96105.28;5096740;28;20032;-80
2021/06/12 09:19:08;;;;;;;3.38;2.50;;;;;;;21.66;44.93;96099.34;5094989;28;20035;-80
2021/06/12 09:21:35;;;;;;;3.55;2.63;;;;;;;21.69;43.67;96098.28;5096358;28;20059;-80
2021/06/12 09:24:03;;;;;;;2.88;2.50;;;;;;;21.17;42.94;96011.56;5096367;28;20107;-80
2021/06/12 09:26:44;;;;;;;4.28;2.25;;;;;;;21.63;41.82;96090.13;5093581;28;20020;-80
2021/06/12 09:29:10;;;;;;;3.10;2.30;;;;;;;21.67;42.72;96078.72;5096577;28;20030;-80
2021/06/12 09:31:45;;;;;;;3.45;2.58;;;;;;;21.51;41.79;96046.72;5096299;28;20023;-80
2021/06/12 09:34:14;;;;;;;2.95;2.30;;;;;;;21.25;42.13;96012.38;5095867;28;20112;-80
2021/06/12 09:36:41;;;;;;;3.70;2.70;;;;;;;21.68;42.58;96080.22;5096090;28;20051;-80
2021/06/12 09:39:23;;;;;;;3.22;2.80;;;;;;;21.70;42.23;96075.63;5096108;28;20016;-80
2021/06/12 09:41:51;;;;;;;4.05;3.17;;;;;;;21.19;44.46;96006.97;5095047;28;20031;-80
2021/06/12 09:44:41;;;;;;;2.75;2.30;;;;;;;21.75;40.93;96079.53;5094982;28;20020;-80
2021/06/12 09:47:23;;;;;;;3.88;2.30;;;;;;;21.66;42.93;96035.81;5095080;28;20328;-80
2021/06/12 09:49:50;;;;;;;2.60;2.10;;;;;;;22.06;43.35;96072.25;5095981;28;20059;-80
2021/06/12 09:52:18;;;;;;;3.70;2.13;;;;;;;22.09;42.49;96023.41;5094331;28;20072;-80
2021/06/12 09:54:49;;;;;;;9.63;3.92;;;;;;;22.67;41.41;96075.44;5094624;28;20024;-80
2021/06/12 09:57:23;;;;;;;2.75;2.47;;;;;;;22.40;42.12;96013.31;5094755;28;20031;-80
2021/06/12 09:59:56;;;;;;;2.28;2.00;;;;;;;22.14;40.62;96003.19;5095217;28;20377;-80
2021/06/12 10:02:46;;;;;;;2.67;2.10;;;;;;;22.55;40.87;96065.22;5095759;28;20473;-80
2021/06/12 10:05:16;;;;;;;3.47;2.20;;;;;;;22.15;39.75;96007.44;5095446;28;20023;-80
2021/06/12 10:07:42;;;;;;;3.95;2.22;;;;;;;22.17;40.59;96008.41;5095496;28;20028;-80
2021/06/12 10:10:13;;;;;;;3.40;2.17;;;;;;;22.45;42.85;96023.47;5094458;28;20126;-80
2021/06/12 10:12:40;;;;;;;2.33;2.13;;;;;;;23.01;40.26;96052.38;5094778;28;20775;-80
2021/06/12 10:15:08;;;;;;;2.50;2.30;;;;;;;22.47;39.06;95979.41;5094369;28;20522;-81
2021/06/12 10:17:41;;;;;;;4.00;2.22;;;;;;;22.60;39.95;96026.34;5095550;28;20435;-80
2021/06/12 10:20:08;;;;;;;2.65;2.20;;;;;;;22.50;39.21;96044.72;5093402;28;20065;-80
2021/06/12 10:22:34;;;;;;;2.25;2.05;;;;;;;22.25;39.40;95999.41;5095211;28;20048;-80
2021/06/12 10:25:00;;;;;;;3.47;2.10;;;;;;;22.21;39.32;95992.22;5095509;28;20024;-80
2021/06/12 10:27:26;;;;;;;3.47;2.25;;;;;;;22.97;42.30;96047.19;5092501;28;20027;-80
2021/06/12 10:29:52;;;;;;;3.08;2.15;;;;;;;22.93;39.33;95991.44;5095377;28;20404;-80
2021/06/12 10:32:19;;;;;;;3.25;2.08;;;;;;;23.24;39.51;95985.97;5093937;28;20473;-80
2021/06/12 10:34:45;;;;;;;2.17;1.90;;;;;;;23.75;39.90;96008.00;5093867;28;20028;-81
2021/06/12 10:37:12;;;;;;;3.85;2.17;;;;;;;23.75;38.06;95965.69;5093535;28;20093;-80
2021/06/12 10:39:40;;;;;;;2.70;2.33;;;;;;;24.47;37.29;96012.38;5093990;28;20024;-81
2021/06/12 10:42:14;;;;;;;6.85;2.13;;;;;;;23.98;36.14;95960.13;5093882;28;20434;-80
2021/06/12 10:44:41;;;;;;;2.30;2.10;;;;;;;23.88;36.95;95973.06;5093459;28;20031;-80
2021/06/12 10:47:07;;;;;;;2.17;1.83;;;;;;;23.84;37.86;95986.56;5094844;28;20024;-80
2021/06/12 10:49:34;;;;;;;1.90;1.80;;;;;;;23.94;35.89;95979.16;5093034;28;20416;-81
2021/06/12 10:52:02;;;;;;;2.20;2.00;;;;;;;24.36;37.10;95987.81;5093429;28;20416;-80
2021/06/12 10:54:36;;;;;;;2.25;2.03;;;;;;;24.32;35.11;95973.53;5093493;28;20024;-80
2021/06/12 10:57:11;;;;;;;3.08;2.00;;;;;;;24.20;36.56;96008.53;5094856;28;20035;-80
2021/06/12 10:59:36;;;;;;;1.98;1.80;;;;;;;24.35;35.45;96002.22;5091955;28;20365;-81
2021/06/12 11:02:09;;;;;;;3.65;1.95;;;;;;;24.42;36.14;95996.66;5094614;28;20099;-80
2021/06/12 11:04:42;;;;;;;2.95;2.00;;;;;;;24.50;36.07;95983.50;5094549;28;20023;-81
2021/06/12 11:07:26;;;;;;;2.28;1.80;;;;;;;24.22;36.87;95976.16;5092974;28;20032;-80
2021/06/12 11:09:54;;;;;;;2.05;1.80;;;;;;;24.01;39.26;95973.59;5094564;28;20419;-80
2021/06/12 11:12:20;;;;;;;2.85;2.10;;;;;;;23.89;36.49;95991.19;5092837;28;20056;-80
2021/06/12 11:15:01;;;;;;;3.10;1.98;;;;;;;23.76;36.41;95976.22;5093196;28;20058;-81
2021/06/12 11:17:27;;;;;;;2.00;1.80;;;;;;;23.52;36.99;95957.34;5093297;28;20028;-80
2021/06/12 11:19:56;;;;;;;2.22;2.00;;;;;;;23.83;36.53;95987.88;5092651;28;20023;-81
2021/06/12 11:22:28;;;;;;;2.20;2.00;;;;;;;23.77;36.95;95986.03;5092950;28;20059;-80
2021/06/12 11:25:01;;;;;;;3.80;2.20;;;;;;;23.95;37.17;95981.38;5093057;28;20047;-80
2021/06/12 11:27:29;;;;;;;2.55;2.30;;;;;;;23.93;37.54;95947.19;5091650;28;20315;-80
2021/06/12 11:30:18;;;;;;;3.38;2.17;;;;;;;23.84;36.48;95923.53;5094349;28;20059;-81
2021/06/12 11:32:55;;;;;;;3.38;2.50;;;;;;;24.38;35.80;95978.91;5092529;28;20024;-80